Time;durP1;ratioP1;P1;durP2;ratioP2;P2;SDS_P1;SDS_P2;PMS_P1;PMS_P2;Temp;Humidity;BMP_temperature;BMP_pressure;BME280_temperature;BME280_humidity;BME280_pressure;Samples;Min_cycle;Max_cycle;Signal;HPM_P1;HPM_P2
2022/07/15 00:02:26;;;;;;;7.63;2.30;;;16.80;1.00;;;;;;6159253;23;20167;-84
2022/07/15 00:04:53;;;;;;;4.83;1.80;;;16.70;1.00;;;;;;6183692;23;20196;-84
2022/07/15 00:07:20;;;;;;;6.13;1.80;;;16.90;1.00;;;;;;6183983;23;20728;-84
2022/07/15 00:12:33;;;;;;;9.93;2.30;;;17.20;1.00;;;;;;6210554;23;20170;-84
2022/07/15 00:15:00;;;;;;;5.10;1.83;;;16.90;1.00;;;;;;6185075;23;20493;-83
2022/07/15 00:17:27;;;;;;;5.67;1.90;;;16.90;1.00;;;;;;6160773;23;20192;-84
2022/07/15 00:19:54;;;;;;;9.93;2.23;;;16.90;1.00;;;;;;6161762;23;20474;-84
2022/07/15 00:22:21;;;;;;;3.80;2.17;;;16.90;1.00;;;;;;6143329;23;20594;-84
2022/07/15 00:24:47;;;;;;;3.67;2.00;;;17.00;1.00;;;;;;6219064;23;20167;-83
2022/07/15 00:27:14;;;;;;;4.57;1.93;;;16.80;99.90;;;;;;6142828;23;20170;-84
2022/07/15 00:29:41;;;;;;;4.40;2.30;;;16.20;1.00;;;;;;6160207;23;20204;-84
2022/07/15 00:32:08;;;;;;;5.50;2.10;;;16.00;1.00;;;;;;6157868;23;20617;-84
2022/07/15 00:34:36;;;;;;;6.77;2.10;;;16.00;1.00;;;;;;6160300;23;20182;-83
2022/07/15 00:37:03;;;;;;;5.23;2.47;;;15.90;1.00;;;;;;6181535;23;20240;-83
2022/07/15 00:39:30;;;;;;;5.23;2.70;;;15.80;99.90;;;;;;6157256;23;20220;-84
2022/07/15 00:41:57;;;;;;;6.40;1.97;;;15.70;1.00;;;;;;6183125;23;20170;-84
2022/07/15 00:44:25;;;;;;;9.93;2.60;;;15.60;99.90;;;;;;6182481;23;20210;-83
2022/07/15 00:46:52;;;;;;;9.17;2.50;;;15.60;29.40;;;;;;6157332;23;20647;-84
2022/07/15 00:49:20;;;;;;;5.83;2.03;;;15.30;99.90;;;;;;6158035;23;20213;-84
2022/07/15 00:51:51;;;;;;;5.17;2.00;;;15.40;99.90;;;;;;6156191;23;20199;-84
2022/07/15 00:54:23;;;;;;;13.73;3.73;;;15.30;99.90;;;;;;6182551;23;20729;-83
2022/07/15 00:56:53;;;;;;;8.57;2.50;;;15.10;1.00;;;;;;6184640;23;20212;-83
2022/07/15 00:59:28;;;;;;;7.47;2.57;;;15.00;1.00;;;;;;6182721;23;20169;-84
2022/07/15 01:01:56;;;;;;;5.07;2.03;;;15.30;99.90;;;;;;6183014;23;20168;-83
2022/07/15 01:04:27;;;;;;;7.20;2.30;;;15.60;1.00;;;;;;6158563;23;20225;-85
2022/07/15 01:06:54;;;;;;;7.13;2.03;;;15.80;99.90;;;;;;6181621;23;20232;-84
2022/07/15 01:09:21;;;;;;;9.23;2.53;;;15.90;99.90;;;;;;6180902;23;20176;-84
2022/07/15 01:11:49;;;;;;;8.97;2.67;;;15.90;99.90;;;;;;6134456;23;20190;-84
2022/07/15 01:14:16;;;;;;;8.00;3.30;;;15.90;99.90;;;;;;6159939;23;20166;-84
2022/07/15 01:16:43;;;;;;;6.17;2.30;;;15.90;1.00;;;;;;6159005;23;20215;-84
2022/07/15 01:19:10;;;;;;;5.97;2.07;;;15.90;1.00;;;;;;6157708;23;20254;-84
2022/07/15 01:21:37;;;;;;;4.70;2.43;;;15.90;1.00;;;;;;6157444;23;20199;-84
2022/07/15 01:24:04;;;;;;;8.20;2.57;;;16.00;1.00;;;;;;6158680;23;20202;-84
2022/07/15 01:26:31;;;;;;;4.93;2.20;;;15.90;1.00;;;;;;6160963;23;20165;-84
2022/07/15 01:28:58;;;;;;;5.53;2.20;;;16.00;16.70;;;;;;6135132;23;20177;-84
2022/07/15 01:31:25;;;;;;;5.47;2.00;;;15.90;1.00;;;;;;6184833;23;20164;-85
2022/07/15 01:33:55;;;;;;;6.07;2.10;;;15.90;1.00;;;;;;6160876;23;20164;-85
2022/07/15 01:36:22;;;;;;;6.23;2.20;;;16.00;1.00;;;;;;6136409;23;20215;-84
2022/07/15 01:38:49;;;;;;;5.70;2.00;;;16.00;1.00;;;;;;6160682;23;20162;-84
2022/07/15 01:41:35;;;;;;;5.03;2.00;;;16.00;1.00;;;;;;6147591;23;20223;-85
2022/07/15 01:44:03;;;;;;;4.73;2.47;;;16.00;1.00;;;;;;6135707;23;20563;-85
2022/07/15 01:46:30;;;;;;;6.07;2.10;;;16.00;99.90;;;;;;6136349;23;20683;-85
2022/07/15 01:51:44;;;;;;;4.20;2.00;;;16.00;1.00;;;;;;6167414;23;20163;-84
2022/07/15 01:54:12;;;;;;;5.47;2.13;;;16.10;54.80;;;;;;6159279;23;20165;-84
2022/07/15 01:56:39;;;;;;;4.63;2.50;;;15.90;99.90;;;;;;6160842;23;20545;-84
2022/07/15 01:59:07;;;;;;;6.57;2.07;;;16.00;99.90;;;;;;6160202;23;20174;-84
2022/07/15 02:01:35;;;;;;;5.53;2.00;;;16.00;1.00;;;;;;6160530;23;20239;-85
2022/07/15 02:04:02;;;;;;;7.97;2.80;;;16.10;1.00;;;;;;6184191;23;20171;-84
2022/07/15 02:06:29;;;;;;;7.90;2.30;;;16.00;99.90;;;;;;6183619;23;20667;-85
2022/07/15 02:08:56;;;;;;;4.77;2.10;;;16.00;99.90;;;;;;6162312;23;20207;-85
2022/07/15 02:11:23;;;;;;;6.63;2.43;;;16.10;99.90;;;;;;6161750;23;20163;-83
2022/07/15 02:13:50;;;;;;;7.07;2.10;;;16.20;99.90;;;;;;6164767;23;20170;-83
2022/07/15 02:16:20;;;;;;;7.23;2.10;;;16.20;99.90;;;;;;6138811;23;20658;-84
2022/07/15 02:18:48;;;;;;;7.43;3.57;;;16.20;99.90;;;;;;6140044;23;20974;-84
2022/07/15 02:21:15;;;;;;;4.77;2.27;;;16.30;99.90;;;;;;6166514;23;20240;-84
2022/07/15 02:23:42;;;;;;;6.70;2.40;;;16.20;1.00;;;;;;6165469;23;20166;-84
2022/07/15 02:26:09;;;;;;;7.47;2.27;;;16.20;1.00;;;;;;6169422;23;20185;-80
2022/07/15 02:28:37;;;;;;;7.73;2.20;;;16.20;99.90;;;;;;6201409;23;20193;-84
2022/07/15 02:31:05;;;;;;;7.23;2.20;;;16.20;1.00;;;;;;6156137;23;20191;-84
2022/07/15 02:33:32;;;;;;;6.27;2.40;;;16.00;99.90;;;;;;6201856;23;20169;-84
2022/07/15 02:35:59;;;;;;;4.50;2.17;;;15.80;99.90;;;;;;6199617;23;20537;-84
2022/07/15 02:38:26;;;;;;;2.93;2.13;;;15.80;99.90;;;;;;6145088;23;20313;-84
2022/07/15 02:40:53;;;;;;;3.23;2.17;;;15.80;1.00;;;;;;6146692;23;20202;-85
2022/07/15 02:43:21;;;;;;;3.17;2.60;;;15.80;1.00;;;;;;6193458;23;20594;-85
2022/07/15 02:45:48;;;;;;;4.77;2.80;;;15.60;99.90;;;;;;6171142;23;20191;-85
2022/07/15 02:48:15;;;;;;;5.33;2.73;;;15.50;1.00;;;;;;6191064;23;20173;-84
2022/07/15 02:50:42;;;;;;;6.13;2.70;;;15.10;1.00;;;;;;6139286;23;20168;-85
2022/07/15 02:53:09;;;;;;;7.50;2.63;;;15.00;1.00;;;;;;6139759;23;20169;-86
2022/07/15 02:55:36;;;;;;;4.60;2.47;;;15.30;1.00;;;;;;6132909;23;20161;-85
2022/07/15 02:58:03;;;;;;;5.10;2.30;;;15.10;1.00;;;;;;6155276;23;20226;-84
2022/07/15 03:00:30;;;;;;;5.47;2.70;;;15.10;99.90;;;;;;6130774;23;20157;-83
2022/07/15 03:02:57;;;;;;;6.40;2.30;;;15.10;1.00;;;;;;6130436;23;20161;-84
2022/07/15 03:05:24;;;;;;;6.30;2.87;;;15.10;1.00;;;;;;6153940;23;20172;-84
2022/07/15 03:07:51;;;;;;;4.50;2.33;;;15.10;99.90;;;;;;6155540;23;20168;-84
2022/07/15 03:10:18;;;;;;;7.00;2.77;;;15.00;99.90;;;;;;6178865;23;20176;-85
2022/07/15 03:12:45;;;;;;;6.77;2.67;;;15.00;99.90;;;;;;6154211;23;20225;-85
2022/07/15 03:15:12;;;;;;;9.23;3.23;;;15.10;1.00;;;;;;6130083;23;20168;-84
2022/07/15 03:17:42;;;;;;;7.17;2.80;;;15.10;1.00;;;;;;6129030;23;20250;-84
2022/07/15 03:20:10;;;;;;;6.13;2.77;;;14.90;20.40;;;;;;6129762;23;20227;-84
2022/07/15 03:22:37;;;;;;;6.13;2.50;;;14.90;99.90;;;;;;6153974;23;20168;-83
2022/07/15 03:25:04;;;;;;;5.30;2.23;;;14.90;1.00;;;;;;6131465;23;20163;-84
2022/07/15 03:27:31;;;;;;;5.97;3.00;;;14.90;99.90;;;;;;6130254;23;20193;-84
2022/07/15 03:29:59;;;;;;;4.93;2.70;;;14.90;99.90;;;;;;6128116;23;20184;-84
2022/07/15 03:32:27;;;;;;;5.47;2.90;;;14.90;1.00;;;;;;6129159;23;20503;-83
2022/07/15 03:34:56;;;;;;;6.00;3.30;;;15.00;99.90;;;;;;6129785;23;20481;-84
2022/07/15 03:37:24;;;;;;;7.43;2.67;;;15.10;99.90;;;;;;6128706;23;20193;-83
2022/07/15 03:39:51;;;;;;;7.87;2.83;;;15.10;1.00;;;;;;6129875;23;20196;-84
2022/07/15 03:42:18;;;;;;;4.23;2.60;;;15.00;1.00;;;;;;6154686;23;20176;-85
2022/07/15 03:44:45;;;;;;;7.03;3.03;;;14.90;1.00;;;;;;6129846;23;20611;-82
2022/07/15 03:47:12;;;;;;;5.40;2.53;;;14.90;99.90;;;;;;6154274;23;20230;-85
2022/07/15 03:49:39;;;;;;;5.07;2.63;;;14.80;52.60;;;;;;6148348;23;20296;-84
2022/07/15 03:52:06;;;;;;;8.87;2.63;;;14.70;99.90;;;;;;6133333;23;20174;-84
2022/07/15 03:54:33;;;;;;;7.03;2.63;;;14.70;1.00;;;;;;6134724;23;20167;-84
2022/07/15 03:57:00;;;;;;;7.73;3.13;;;14.70;99.90;;;;;;6158202;23;20545;-84
2022/07/15 03:59:27;;;;;;;8.10;2.97;;;14.70;1.00;;;;;;6184204;23;20168;-84
2022/07/15 04:01:54;;;;;;;6.33;2.50;;;14.90;67.80;;;;;;6134007;23;20175;-84
2022/07/15 04:04:21;;;;;;;6.73;3.00;;;15.00;1.00;;;;;;6160663;23;20190;-84
2022/07/15 04:06:48;;;;;;;5.20;2.63;;;15.00;99.90;;;;;;6182411;23;20226;-84
2022/07/15 04:09:15;;;;;;;5.67;2.37;;;14.90;1.00;;;;;;6182461;23;20172;-83
2022/07/15 04:11:42;;;;;;;5.47;2.63;;;14.90;50.60;;;;;;6135350;23;20467;-84
2022/07/15 04:14:13;;;;;;;3.30;2.10;;;15.00;1.00;;;;;;6184110;23;20169;-83
2022/07/15 04:16:41;;;;;;;8.50;2.50;;;15.10;1.00;;;;;;6134440;23;20267;-83
2022/07/15 04:19:08;;;;;;;7.03;2.83;;;15.00;1.00;;;;;;6184334;23;20215;-83
2022/07/15 04:21:35;;;;;;;8.07;2.87;;;15.10;1.00;;;;;;6182345;23;20164;-84
2022/07/15 04:24:02;;;;;;;5.90;3.17;;;14.90;1.00;;;;;;6183699;23;20159;-84
2022/07/15 04:26:29;;;;;;;8.77;3.20;;;14.90;1.00;;;;;;6159242;23;20167;-84
2022/07/15 04:28:56;;;;;;;7.13;2.80;;;14.80;99.90;;;;;;6159712;23;20222;-83
2022/07/15 04:31:23;;;;;;;5.37;3.83;;;14.70;1.00;;;;;;6182278;23;20163;-84
2022/07/15 04:33:50;;;;;;;9.13;2.53;;;14.70;1.00;;;;;;6183550;23;20160;-84
2022/07/15 04:36:17;;;;;;;6.87;2.63;;;14.80;99.90;;;;;;6157686;23;20167;-84
2022/07/15 04:38:44;;;;;;;4.50;2.80;;;14.80;99.90;;;;;;6158365;23;20777;-83
2022/07/15 04:41:11;;;;;;;8.30;3.00;;;14.90;99.90;;;;;;6183384;23;20189;-83
2022/07/15 04:43:39;;;;;;;8.47;3.10;;;14.90;99.90;;;;;;6135704;23;20235;-84
2022/07/15 04:46:05;;;;;;;4.50;2.50;;;14.90;1.00;;;;;;6183555;23;20179;-83
2022/07/15 04:51:18;;;;;;;6.17;2.63;;;15.10;99.90;;;;;;6156873;23;20632;-84
2022/07/15 04:53:44;;;;;;;5.17;3.00;;;15.30;99.90;;;;;;6128602;23;20172;-84
2022/07/15 04:56:12;;;;;;;6.97;2.30;;;15.20;1.00;;;;;;6129199;23;20234;-84
2022/07/15 04:58:39;;;;;;;5.67;2.40;;;15.40;1.00;;;;;;6129594;23;20191;-84
2022/07/15 05:01:06;;;;;;;6.30;2.20;;;15.50;1.00;;;;;;6154637;23;20173;-83
2022/07/15 05:03:33;;;;;;;8.27;2.03;;;15.50;1.00;;;;;;6154594;23;20166;-84
2022/07/15 05:06:00;;;;;;;4.80;2.70;;;15.70;1.00;;;;;;6129597;23;20165;-84
2022/07/15 05:08:27;;;;;;;12.17;2.50;;;15.90;1.00;;;;;;6129142;23;20491;-84
2022/07/15 05:10:54;;;;;;;6.20;1.87;;;16.00;99.90;;;;;;6129476;23;20165;-84
2022/07/15 05:13:21;;;;;;;5.57;1.83;;;16.00;1.00;;;;;;6153894;23;20551;-84
2022/07/15 05:15:47;;;;;;;5.87;1.63;;;15.90;1.00;;;;;;6129870;23;20168;-85
2022/07/15 05:18:14;;;;;;;7.27;2.03;;;16.00;1.00;;;;;;6129135;23;20196;-83
2022/07/15 05:20:42;;;;;;;5.13;1.80;;;16.10;99.90;;;;;;6130089;23;20197;-84
2022/07/15 05:23:08;;;;;;;5.63;1.77;;;16.20;99.90;;;;;;6129022;23;20164;-84
2022/07/15 05:25:36;;;;;;;8.00;2.17;;;16.30;1.00;;;;;;6130059;23;20165;-81
2022/07/15 05:28:03;;;;;;;5.00;1.87;;;16.30;1.00;;;;;;6128723;23;20171;-82
2022/07/15 05:30:30;;;;;;;5.23;2.07;;;16.50;1.00;;;;;;6127490;23;20514;-82
2022/07/15 05:32:57;;;;;;;6.40;2.30;;;16.60;1.00;;;;;;6129199;23;20165;-82
2022/07/15 05:35:24;;;;;;;3.63;2.00;;;16.70;99.90;;;;;;6127835;23;20491;-83
2022/07/15 05:37:51;;;;;;;5.70;2.30;;;16.80;1.00;;;;;;6127860;23;20186;-82
2022/07/15 05:40:18;;;;;;;3.90;1.97;;;16.80;1.00;;;;;;6126724;23;20189;-81
2022/07/15 05:42:45;;;;;;;9.27;2.43;;;16.60;1.00;;;;;;6131191;23;20171;-83
2022/07/15 05:45:11;;;;;;;4.60;2.10;;;16.40;99.90;;;;;;6131329;23;20618;-83
2022/07/15 05:47:38;;;;;;;9.00;2.50;;;16.60;1.00;;;;;;6155856;23;20451;-83
2022/07/15 05:50:06;;;;;;;5.47;2.03;;;16.50;99.90;;;;;;6155080;23;20523;-83
2022/07/15 05:52:34;;;;;;;6.13;2.07;;;16.70;99.90;;;;;;6185726;23;20180;-83
2022/07/15 05:55:01;;;;;;;6.30;1.67;;;16.90;1.00;;;;;;6137304;23;20503;-83
2022/07/15 05:57:28;;;;;;;6.10;1.77;;;17.00;1.00;;;;;;6138082;23;20318;-83
2022/07/15 05:59:55;;;;;;;6.33;1.40;;;17.20;1.00;;;;;;6137902;23;20168;-83
2022/07/15 06:02:22;;;;;;;4.67;1.50;;;17.30;1.00;;;;;;6133286;23;20529;-82
2022/07/15 06:04:49;;;;;;;3.63;1.07;;;17.40;1.00;;;;;;6137773;23;20156;-83
2022/07/15 06:07:16;;;;;;;6.07;1.20;;;17.10;99.90;;;;;;6184849;23;20178;-83
2022/07/15 06:09:42;;;;;;;3.87;1.10;;;16.90;1.00;;;;;;6136633;23;20169;-83
2022/07/15 06:12:10;;;;;;;2.97;1.30;;;17.20;1.00;;;;;;6137909;23;20192;-83
2022/07/15 06:14:37;;;;;;;4.30;1.50;;;17.10;1.00;;;;;;6138265;23;20166;-83
2022/07/15 06:17:05;;;;;;;2.27;1.10;;;17.10;99.90;;;;;;6162514;23;20220;-83
2022/07/15 06:19:32;;;;;;;7.47;1.63;;;17.20;1.00;;;;;;6163082;23;20166;-83
2022/07/15 06:21:59;;;;;;;4.87;1.30;;;17.20;99.90;;;;;;6162403;23;20163;-82
2022/07/15 06:24:26;;;;;;;5.67;1.20;;;17.10;99.90;;;;;;6163473;23;20161;-83
2022/07/15 06:26:53;;;;;;;5.23;1.20;;;17.30;99.90;;;;;;6193025;23;20219;-85
2022/07/15 06:29:20;;;;;;;4.20;1.07;;;17.50;1.00;;;;;;6168756;23;20168;-84
2022/07/15 06:31:48;;;;;;;4.57;1.67;;;17.50;1.00;;;;;;6150461;23;20244;-84
2022/07/15 06:34:15;;;;;;;4.20;1.20;;;17.60;1.00;;;;;;6144174;23;20158;-84
2022/07/15 06:36:42;;;;;;;4.23;1.30;;;17.80;1.00;;;;;;6167059;23;20502;-84
2022/07/15 06:39:10;;;;;;;3.40;1.00;;;17.70;1.00;;;;;;6162407;23;20190;-84
2022/07/15 06:41:37;;;;;;;3.97;1.40;;;17.80;1.00;;;;;;6161953;23;20194;-84
2022/07/15 06:44:05;;;;;;;4.27;0.90;;;17.90;1.00;;;;;;6160655;23;20153;-80
2022/07/15 06:46:32;;;;;;;2.27;1.00;;;17.70;1.00;;;;;;6185685;23;20170;-81
2022/07/15 06:48:59;;;;;;;3.47;1.20;;;17.90;1.00;;;;;;6155706;23;20210;-81
2022/07/15 06:51:26;;;;;;;4.20;1.87;;;18.10;1.00;;;;;;6154966;23;20165;-81
2022/07/15 06:53:53;;;;;;;4.03;1.50;;;18.10;1.00;;;;;;6179264;23;20192;-80
2022/07/15 06:56:20;;;;;;;3.77;1.07;;;18.30;1.00;;;;;;6153619;23;20170;-78
2022/07/15 06:58:47;;;;;;;5.57;1.10;;;18.80;1.00;;;;;;6154245;23;20222;-78
2022/07/15 07:01:13;;;;;;;4.47;0.97;;;18.70;99.90;;;;;;6153903;23;20171;-78
2022/07/15 07:03:41;;;;;;;3.40;0.90;;;18.40;30.90;;;;;;6151306;23;20177;-78
2022/07/15 07:06:26;;;;;;;2.07;0.77;;;18.20;99.90;;;;;;6156841;23;20171;-78
2022/07/15 07:08:53;;;;;;;6.97;1.33;;;18.40;99.90;;;;;;6153030;23;20170;-78
2022/07/15 07:11:21;;;;;;;4.30;1.13;;;18.60;4.20;;;;;;6180041;23;20176;-79
2022/07/15 07:13:49;;;;;;;1.87;0.87;;;18.40;1.00;;;;;;6181420;23;20172;-78
2022/07/15 07:16:16;;;;;;;3.47;1.50;;;18.50;99.90;;;;;;6153669;23;20179;-78
2022/07/15 07:18:45;;;;;;;2.47;1.00;;;18.50;99.90;;;;;;6153578;23;20187;-79
2022/07/15 07:21:13;;;;;;;4.40;1.40;;;18.80;99.90;;;;;;6178539;23;20192;-78
2022/07/15 07:23:41;;;;;;;2.20;1.17;;;19.00;1.00;;;;;;6153476;23;20155;-78
2022/07/15 07:26:10;;;;;;;4.60;1.30;;;19.10;1.00;;;;;;6154512;23;20158;-79
2022/07/15 07:28:40;;;;;;;2.10;0.63;;;19.20;1.00;;;;;;6153987;23;20172;-79
2022/07/15 07:31:12;;;;;;;4.27;0.90;;;19.20;1.00;;;;;;6155005;23;20516;-78
2022/07/15 07:33:40;;;;;;;3.93;0.90;;;19.60;1.00;;;;;;6153835;23;20177;-78
2022/07/15 07:36:08;;;;;;;2.87;1.17;;;19.50;1.00;;;;;;6153053;23;20672;-78
2022/07/15 07:38:36;;;;;;;3.00;0.80;;;19.30;1.00;;;;;;6152654;23;20696;-78
2022/07/15 07:41:03;;;;;;;5.70;1.30;;;19.30;1.00;;;;;;6153645;23;20579;-78
2022/07/15 07:43:32;;;;;;;4.67;0.97;;;19.70;1.00;;;;;;6177453;23;20169;-78
2022/07/15 07:45:59;;;;;;;3.83;0.90;;;19.90;1.00;;;;;;6180759;23;20168;-78
2022/07/15 07:48:26;;;;;;;6.93;0.87;;;19.90;1.00;;;;;;6152146;23;20296;-78
2022/07/15 07:50:53;;;;;;;2.80;0.80;;;19.80;99.90;;;;;;6127756;23;20179;-79
2022/07/15 07:53:20;;;;;;;4.40;0.80;;;20.10;99.90;;;;;;6153362;23;20173;-78
2022/07/15 07:55:48;;;;;;;3.23;1.40;;;19.90;99.90;;;;;;6153864;23;20180;-78
2022/07/15 07:58:16;;;;;;;5.77;1.40;;;20.10;99.90;;;;;;6153769;23;20181;-78
2022/07/15 08:00:44;;;;;;;4.13;1.03;;;20.30;99.90;;;;;;6152989;23;20157;-77
2022/07/15 08:03:11;;;;;;;1.93;1.17;;;20.30;99.90;;;;;;6151001;23;20161;-78
2022/07/15 08:05:39;;;;;;;3.58;1.10;;;20.60;99.90;;;;;;6128359;23;20410;-77
2022/07/15 08:08:10;;;;;;;3.03;1.10;;;20.90;99.90;;;;;;6154051;23;20169;-76
2022/07/15 08:10:39;;;;;;;1.90;0.83;;;22.00;99.90;;;;;;6154098;23;20169;-77
2022/07/15 08:13:13;;;;;;;5.00;0.90;;;23.30;24.90;;;;;;6154445;23;20168;-76
2022/07/15 08:15:40;;;;;;;2.40;0.77;;;24.00;1.00;;;;;;6154090;23;20172;-77
2022/07/15 08:18:07;;;;;;;1.30;0.80;;;24.80;1.00;;;;;;6128788;23;20499;-77
2022/07/15 08:20:35;;;;;;;5.70;1.03;;;24.20;1.00;;;;;;6178310;23;20189;-78
2022/07/15 08:23:04;;;;;;;3.83;1.20;;;24.50;1.00;;;;;;6176819;23;20222;-77
2022/07/15 08:25:38;;;;;;;4.60;0.97;;;25.30;1.00;;;;;;6130716;23;20164;-77
2022/07/15 08:28:06;;;;;;;4.27;1.20;;;24.60;1.00;;;;;;6179053;23;20207;-77
2022/07/15 08:30:34;;;;;;;3.33;0.90;;;24.60;1.00;;;;;;6176175;23;20168;-77
2022/07/15 08:33:03;;;;;;;4.37;1.30;;;24.50;1.00;;;;;;6128019;23;20376;-77
2022/07/15 08:35:30;;;;;;;2.40;0.80;;;24.50;1.00;;;;;;6176399;23;20169;-77
2022/07/15 08:37:58;;;;;;;4.00;1.00;;;25.00;1.00;;;;;;6125996;23;20188;-77
2022/07/15 08:40:26;;;;;;;2.87;0.87;;;25.00;1.00;;;;;;6127573;23;20554;-77
2022/07/15 08:42:53;;;;;;;2.57;1.13;;;25.40;1.00;;;;;;6127936;23;20774;-77
2022/07/15 08:45:20;;;;;;;5.47;1.17;;;26.10;1.00;;;;;;6126012;23;20169;-77
2022/07/15 08:47:47;;;;;;;3.23;1.13;;;25.50;1.00;;;;;;6150960;23;20602;-77
2022/07/15 08:50:24;;;;;;;1.43;0.80;;;26.20;1.00;;;;;;6177301;23;20203;-78
2022/07/15 08:52:51;;;;;;;4.67;0.93;;;26.60;1.00;;;;;;6127291;23;20483;-77
2022/07/15 08:55:21;;;;;;;2.37;1.03;;;26.30;1.00;;;;;;6124293;23;20174;-77
2022/07/15 08:57:50;;;;;;;3.77;0.77;;;26.90;1.00;;;;;;6125054;23;20164;-77
2022/07/15 09:00:18;;;;;;;2.90;0.97;;;26.80;1.00;;;;;;6146071;23;20163;-77
2022/07/15 09:02:45;;;;;;;1.87;0.80;;;27.60;1.00;;;;;;6175174;23;20168;-77
2022/07/15 09:05:18;;;;;;;3.03;1.00;;;27.80;1.00;;;;;;6146410;23;20245;-77
2022/07/15 09:07:59;;;;;;;3.92;1.80;;;27.30;1.00;;;;;;6147606;23;20673;-77
2022/07/15 09:10:45;;;;;;;2.25;0.82;;;27.60;1.00;;;;;;6148603;23;20172;-77
2022/07/15 09:13:27;;;;;;;1.25;0.75;;;27.40;1.00;;;;;;6150580;23;20164;-78
2022/07/15 09:15:55;;;;;;;3.17;0.90;;;27.40;1.00;;;;;;6149095;23;20468;-77
2022/07/15 09:18:28;;;;;;;4.80;1.25;;;27.10;1.00;;;;;;6153465;23;20181;-78
2022/07/15 09:20:56;;;;;;;2.83;0.70;;;25.50;1.00;;;;;;6154090;23;20192;-78
2022/07/15 09:23:30;;;;;;;5.23;1.00;;;25.10;1.00;;;;;;6129024;23;20477;-77
2022/07/15 09:26:18;;;;;;;5.17;0.73;;;26.00;1.00;;;;;;6180658;23;20164;-77
2022/07/15 09:28:46;;;;;;;2.63;0.60;;;26.10;1.00;;;;;;6181694;23;20620;-78
2022/07/15 09:34:00;;;;;;;2.13;1.07;;;26.20;1.00;;;;;;6180832;23;20600;-77
2022/07/15 09:36:30;;;;;;;1.60;0.70;;;26.30;1.00;;;;;;6179533;23;20169;-78
2022/07/15 09:39:03;;;;;;;2.83;0.90;;;26.40;1.00;;;;;;6150931;23;20189;-77
2022/07/15 09:41:41;;;;;;;2.07;0.77;;;27.50;1.00;;;;;;6152468;23;20197;-77
2022/07/15 09:44:36;;;;;;;2.33;0.80;;;27.30;1.00;;;;;;6153592;23;20255;-77
2022/07/15 09:47:03;;;;;;;3.03;0.87;;;26.60;1.00;;;;;;6175084;23;20234;-77
2022/07/15 09:49:34;;;;;;;3.47;0.90;;;27.50;1.00;;;;;;6168634;23;20261;-77
2022/07/15 09:52:07;;;;;;;2.73;0.93;;;27.30;1.00;;;;;;6156630;23;20719;-78
2022/07/15 09:54:39;;;;;;;2.73;0.70;;;25.90;1.00;;;;;;6206929;23;20179;-79
2022/07/15 09:57:14;;;;;;;1.47;0.83;;;23.90;1.00;;;;;;6179438;23;20180;-78
2022/07/15 09:59:45;;;;;;;1.57;0.80;;;23.60;1.00;;;;;;6182808;23;20235;-77
2022/07/15 10:02:13;;;;;;;1.80;0.80;;;25.00;1.00;;;;;;6211352;23;20176;-77
2022/07/15 10:04:41;;;;;;;1.67;0.90;;;25.90;1.00;;;;;;6206768;23;20174;-77
2022/07/15 10:07:11;;;;;;;1.20;0.60;;;25.90;1.00;;;;;;6207328;23;20175;-77
2022/07/15 10:09:56;;;;;;;1.03;0.60;;;26.20;1.00;;;;;;6209233;23;20163;-77
2022/07/15 10:12:54;;;;;;;2.13;0.60;;;26.20;1.00;;;;;;6184310;23;20174;-77
2022/07/15 10:15:42;;;;;;;1.43;0.60;;;25.80;1.00;;;;;;6162883;23;20183;-77
2022/07/15 10:18:14;;;;;;;1.37;1.00;;;25.30;1.00;;;;;;6181601;23;20194;-77
2022/07/15 10:21:15;;;;;;;1.40;0.73;;;25.40;1.00;;;;;;6174979;23;20469;-77
2022/07/15 10:23:48;;;;;;;1.20;0.70;;;26.00;1.00;;;;;;6177930;23;20181;-77
2022/07/15 10:26:26;;;;;;;1.93;0.80;;;25.00;1.00;;;;;;6179126;23;20159;-77
2022/07/15 10:29:01;;;;;;;2.53;0.77;;;24.70;1.00;;;;;;6184964;23;20587;-77
2022/07/15 10:31:30;;;;;;;2.23;0.70;;;25.20;1.00;;;;;;6184302;23;20170;-77
2022/07/15 10:34:06;;;;;;;1.37;0.60;;;25.10;1.00;;;;;;6160108;23;20220;-77
2022/07/15 10:36:54;;;;;;;1.53;0.50;;;24.60;1.00;;;;;;6183273;23;20163;-77
2022/07/15 10:39:24;;;;;;;1.40;0.47;;;25.20;1.00;;;;;;6183948;23;20710;-76
2022/07/15 10:41:57;;;;;;;2.73;0.90;;;25.10;1.00;;;;;;6211544;23;20173;-78
2022/07/15 10:44:36;;;;;;;3.30;1.10;;;24.60;1.00;;;;;;6185235;23;20546;-77
2022/07/15 10:47:12;;;;;;;1.00;0.60;;;24.10;1.00;;;;;;6212232;23;20543;-77
2022/07/15 10:49:44;;;;;;;1.47;0.77;;;24.50;1.00;;;;;;6190782;22;20207;-77
2022/07/15 10:52:23;;;;;;;3.50;0.60;;;24.90;1.00;;;;;;6180639;23;20191;-77
2022/07/15 10:54:55;;;;;;;0.87;0.60;;;24.30;1.00;;;;;;6154465;23;20205;-77
2022/07/15 10:57:40;;;;;;;2.03;0.70;;;24.00;1.00;;;;;;6180845;23;20170;-77
2022/07/15 11:00:27;;;;;;;2.40;0.67;;;23.60;1.00;;;;;;6155046;23;20759;-77
2022/07/15 11:03:08;;;;;;;2.00;0.70;;;24.00;1.00;;;;;;6154042;23;20162;-77
2022/07/15 11:05:46;;;;;;;1.40;0.50;;;24.00;1.00;;;;;;6180950;23;20244;-77
2022/07/15 11:08:36;;;;;;;1.63;0.70;;;25.10;1.00;;;;;;6153780;23;20845;-77
2022/07/15 11:11:15;;;;;;;1.53;0.63;;;25.30;1.00;;;;;;6139731;23;20178;-77
2022/07/15 11:13:45;;;;;;;1.63;0.63;;;26.00;1.00;;;;;;6180952;23;20269;-76
2022/07/15 11:16:14;;;;;;;3.93;0.90;;;25.50;1.00;;;;;;6155060;23;20470;-77
2022/07/15 11:19:00;;;;;;;4.17;1.00;;;25.30;1.00;;;;;;6154821;23;20202;-77
2022/07/15 11:21:27;;;;;;;1.07;0.67;;;26.70;1.00;;;;;;6128940;23;20327;-76
2022/07/15 11:23:54;;;;;;;2.53;0.60;;;26.80;1.00;;;;;;6154502;23;20267;-77
2022/07/15 11:26:21;;;;;;;4.57;1.07;;;25.00;1.00;;;;;;6154588;23;20199;-76
2022/07/15 11:28:57;;;;;;;3.53;0.67;;;23.90;1.00;;;;;;6130433;23;20227;-77
2022/07/15 11:31:25;;;;;;;4.03;0.70;;;24.00;1.00;;;;;;6154443;23;20198;-77
2022/07/15 11:33:56;;;;;;;4.03;0.80;;;26.20;1.00;;;;;;6154339;23;20168;-77
2022/07/15 11:36:23;;;;;;;5.70;1.00;;;25.00;1.00;;;;;;6179860;23;20168;-76
2022/07/15 11:38:51;;;;;;;1.97;0.70;;;25.60;1.00;;;;;;6153915;23;20270;-77
2022/07/15 11:46:57;;;;;;;3.90;0.70;;;25.20;1.00;;;;;;6181491;23;20181;-78
2022/07/15 11:49:38;;;;;;;0.88;0.60;;;26.20;1.00;;;;;;6170703;23;20207;-77
2022/07/15 11:52:07;;;;;;;1.10;0.50;;;25.70;1.00;;;;;;6183854;23;20163;-77
2022/07/15 11:54:39;;;;;;;1.00;0.50;;;25.70;1.00;;;;;;6182335;23;20198;-76
2022/07/15 11:57:09;;;;;;;3.43;0.80;;;26.80;1.00;;;;;;6204898;23;20182;-77
2022/07/15 11:59:36;;;;;;;1.40;0.60;;;26.60;1.00;;;;;;6182612;23;20177;-77
2022/07/15 12:02:09;;;;;;;3.73;0.90;;;26.30;1.00;;;;;;6179996;23;20685;-79
2022/07/15 12:04:37;;;;;;;4.00;0.70;;;26.50;1.00;;;;;;6179358;23;20167;-77
2022/07/15 12:07:05;;;;;;;1.70;0.60;;;27.10;1.00;;;;;;6179779;23;20156;-77
2022/07/15 12:09:51;;;;;;;2.17;0.70;;;26.80;1.00;;;;;;6157229;23;20606;-77
2022/07/15 12:12:18;;;;;;;1.73;0.80;;;26.70;1.00;;;;;;6180594;23;20218;-77
2022/07/15 12:14:50;;;;;;;2.95;0.75;;;27.10;1.00;;;;;;6158439;23;20192;-78
2022/07/15 12:17:18;;;;;;;1.42;0.85;;;26.70;1.00;;;;;;6181963;23;20782;-78
2022/07/15 12:19:56;;;;;;;3.15;0.60;;;25.50;1.00;;;;;;6158918;23;20211;-78
2022/07/15 12:22:23;;;;;;;2.35;0.80;;;24.80;1.00;;;;;;6210277;23;20626;-78
2022/07/15 12:24:51;;;;;;;1.63;0.70;;;24.90;1.00;;;;;;6157760;23;20176;-78
2022/07/15 12:27:39;;;;;;;1.88;1.05;;;24.60;1.00;;;;;;6158060;23;20601;-78
2022/07/15 12:30:08;;;;;;;2.83;0.60;;;24.60;1.00;;;;;;6184327;23;20230;-78
2022/07/15 12:32:37;;;;;;;1.67;1.20;;;23.90;1.00;;;;;;6207839;23;20243;-77
2022/07/15 12:35:05;;;;;;;1.27;0.60;;;24.00;1.00;;;;;;6154380;23;20263;-77
2022/07/15 12:37:35;;;;;;;2.00;0.90;;;24.20;1.00;;;;;;6157398;23;20194;-78
2022/07/15 12:40:11;;;;;;;3.63;0.80;;;23.70;1.00;;;;;;6205955;23;20469;-77
2022/07/15 12:42:50;;;;;;;2.80;1.13;;;23.60;1.00;;;;;;6208757;23;20191;-77
2022/07/15 12:45:23;;;;;;;2.73;0.80;;;23.80;1.00;;;;;;6208585;23;20167;-78
2022/07/15 12:48:02;;;;;;;1.30;0.87;;;23.30;1.00;;;;;;6208262;23;20448;-78
2022/07/15 12:50:43;;;;;;;3.07;0.70;;;23.40;1.00;;;;;;6208143;23;20666;-78
2022/07/15 12:53:18;;;;;;;3.30;0.80;;;23.30;1.00;;;;;;6184222;23;20188;-78
2022/07/15 12:55:48;;;;;;;2.97;0.70;;;23.30;1.00;;;;;;6182670;23;20215;-78
2022/07/15 12:58:28;;;;;;;1.73;0.57;;;23.60;1.00;;;;;;6183314;23;20206;-77
2022/07/15 13:01:16;;;;;;;1.77;0.90;;;23.80;1.00;;;;;;6183716;23;20180;-78
2022/07/15 13:03:42;;;;;;;2.57;1.00;;;23.40;1.00;;;;;;6157830;23;20241;-77
2022/07/15 13:06:11;;;;;;;1.93;0.80;;;23.40;1.00;;;;;;6182137;23;20877;-77
2022/07/15 13:08:39;;;;;;;3.70;1.40;;;23.40;1.00;;;;;;6183472;23;20157;-77
2022/07/15 13:11:09;;;;;;;4.40;0.93;;;23.70;1.00;;;;;;6182631;23;20247;-77
2022/07/15 13:13:38;;;;;;;6.13;1.27;;;23.80;1.00;;;;;;6209947;23;20164;-77
2022/07/15 13:16:07;;;;;;;1.17;1.00;;;24.00;1.00;;;;;;6183455;23;20248;-77
2022/07/15 13:18:36;;;;;;;3.97;1.00;;;24.30;1.00;;;;;;6157190;23;20504;-78
2022/07/15 13:21:04;;;;;;;1.27;0.90;;;24.20;1.00;;;;;;6184012;23;20636;-78
2022/07/15 13:23:31;;;;;;;3.73;1.00;;;25.20;1.00;;;;;;6156791;23;20558;-78
2022/07/15 13:25:58;;;;;;;3.07;1.00;;;24.60;1.00;;;;;;6184814;23;20153;-78